Time;durP1;ratioP1;P1;durP2;ratioP2;P2;SDS_P1;SDS_P2;PMS_P1;PMS_P2;Temp;Humidity;BMP_temperature;BMP_pressure;BME280_temperature;BME280_humidity;BME280_pressure;Samples;Min_cycle;Max_cycle;Signal;HPM_P1;HPM_P2
2022/11/29 00:01:29;;;;;;;45.93;25.63;;;2.80;99.90;1.90;101079;;;;541478;263;24240;-82
2022/11/29 00:03:57;;;;;;;46.03;25.80;;;2.80;99.90;1.90;101083;;;;566964;253;24133;-80
2022/11/29 00:06:28;;;;;;;42.47;23.80;;;2.80;99.90;1.90;101079;;;;567002;252;24155;-81
2022/11/29 00:08:56;;;;;;;43.20;24.23;;;2.70;99.90;1.90;101080;;;;566910;252;24152;-84
2022/11/29 00:14:10;;;;;;;41.47;24.33;;;2.80;99.90;1.90;101079;;;;567008;249;24157;-82
2022/11/29 00:16:41;;;;;;;39.43;22.23;;;2.80;99.90;1.90;101077;;;;566959;253;24107;-81
2022/11/29 00:19:09;;;;;;;41.93;24.30;;;2.80;99.90;1.80;101074;;;;566835;252;24096;-82
2022/11/29 00:21:37;;;;;;;45.53;25.40;;;2.70;99.90;1.80;101068;;;;566861;252;24108;-82
2022/11/29 00:24:01;;;;;;;40.67;23.93;;;2.70;99.90;1.90;101082;;;;566381;253;24145;-84
2022/11/29 00:26:32;;;;;;;40.93;22.77;;;2.80;99.90;1.90;101080;;;;566973;252;24134;-80
2022/11/29 00:28:58;;;;;;;42.20;22.63;;;2.80;99.90;1.90;101082;;;;566705;253;25285;-80
2022/11/29 00:31:29;;;;;;;34.67;22.07;;;2.80;99.90;1.90;101088;;;;568233;251;24126;-80
2022/11/29 00:33:54;;;;;;;40.97;22.17;;;2.80;99.90;1.90;101090;;;;567705;252;24100;-79
2022/11/29 00:36:27;;;;;;;38.93;21.47;;;2.80;99.90;1.90;101080;;;;567830;251;24138;-82
2022/11/29 00:38:59;;;;;;;40.10;22.13;;;2.80;99.90;1.80;101085;;;;567783;251;24161;-77
2022/11/29 00:41:23;;;;;;;41.50;21.43;;;2.80;99.90;1.90;101083;;;;567500;252;24093;-80
2022/11/29 00:43:51;;;;;;;47.63;23.37;;;2.70;99.90;1.80;101081;;;;567640;251;24088;-82
2022/11/29 00:46:19;;;;;;;41.10;22.23;;;2.80;99.90;1.80;101076;;;;567543;251;24177;-81
2022/11/29 00:48:47;;;;;;;40.87;22.30;;;2.80;99.90;1.80;101085;;;;567438;251;24105;-79
2022/11/29 00:51:18;;;;;;;39.37;21.40;;;2.70;99.90;1.80;101084;;;;567262;251;24106;-77
2022/11/29 00:53:43;;;;;;;37.93;20.93;;;2.70;99.90;1.80;101082;;;;566947;252;24093;-83
2022/11/29 00:56:15;;;;;;;39.30;20.70;;;2.70;99.90;1.80;101065;;;;567292;251;24153;-83
2022/11/29 00:58:42;;;;;;;39.83;20.97;;;2.70;99.90;1.80;101069;;;;566842;253;24100;-83
2022/11/29 01:01:07;;;;;;;37.20;21.73;;;2.70;99.90;1.80;101071;;;;566982;252;24101;-80
2022/11/29 01:03:35;;;;;;;35.47;19.03;;;2.70;99.90;1.80;101068;;;;567346;251;24090;-79
2022/11/29 01:06:11;;;;;;;37.97;21.70;;;2.60;99.90;1.70;101064;;;;567227;251;24142;-78
2022/11/29 01:08:39;;;;;;;35.00;20.90;;;2.70;99.90;1.80;101065;;;;541631;262;24212;-78
2022/11/29 01:11:07;;;;;;;35.27;19.90;;;2.70;99.90;1.80;101065;;;;567047;252;24109;-83
2022/11/29 01:13:39;;;;;;;35.93;19.47;;;2.60;99.90;1.70;101058;;;;566864;249;24093;-80
2022/11/29 01:16:06;;;;;;;36.23;20.33;;;2.60;99.90;1.70;101066;;;;567067;251;24151;-82
2022/11/29 01:18:35;;;;;;;37.33;20.00;;;2.60;99.90;1.70;101062;;;;566601;253;24166;-80
2022/11/29 01:20:59;;;;;;;38.97;20.80;;;2.60;99.90;1.70;101051;;;;566607;253;24148;-79
2022/11/29 01:23:27;;;;;;;36.33;20.27;;;2.60;99.90;1.70;101061;;;;541460;257;25224;-79
2022/11/29 01:26:00;;;;;;;35.07;19.73;;;2.60;99.90;1.60;101065;;;;566961;252;24116;-78
2022/11/29 01:28:28;;;;;;;34.10;20.27;;;2.60;99.90;1.60;101062;;;;567055;252;24160;-79
2022/11/29 01:30:56;;;;;;;36.27;20.43;;;2.50;99.90;1.60;101067;;;;566983;252;24110;-80
2022/11/29 01:33:27;;;;;;;38.27;20.57;;;2.50;99.90;1.60;101057;;;;566976;252;24104;-79
2022/11/29 01:35:55;;;;;;;32.97;19.03;;;2.50;99.90;1.60;101062;;;;566664;252;24125;-80
2022/11/29 01:38:20;;;;;;;37.57;19.93;;;2.50;99.90;1.60;101070;;;;566701;253;24179;-82
2022/11/29 01:41:06;;;;;;;35.67;20.93;;;2.50;99.90;1.60;101072;;;;567018;252;24109;-81
2022/11/29 01:43:37;;;;;;;37.67;19.37;;;2.50;99.90;1.60;101064;;;;568533;251;24100;-80
2022/11/29 01:46:02;;;;;;;34.33;19.40;;;2.50;99.90;1.60;101064;;;;566686;252;24131;-82
2022/11/29 01:48:30;;;;;;;34.27;19.13;;;2.50;99.90;1.60;101073;;;;567799;251;25148;-81
2022/11/29 01:50:58;;;;;;;34.27;19.60;;;2.50;99.90;1.60;101073;;;;567654;252;24137;-80
2022/11/29 01:53:29;;;;;;;37.77;21.50;;;2.50;99.90;1.60;101070;;;;567279;252;24130;-80
2022/11/29 01:55:56;;;;;;;37.60;20.53;;;2.50;99.90;1.60;101070;;;;567406;251;24125;-79
2022/11/29 01:58:24;;;;;;;38.50;21.50;;;2.50;99.90;1.50;101075;;;;567479;251;24206;-82
2022/11/29 02:00:52;;;;;;;37.87;20.83;;;2.40;99.90;1.50;101067;;;;567335;251;24104;-83
2022/11/29 02:03:20;;;;;;;36.83;21.63;;;2.40;99.90;1.50;101063;;;;567361;251;24141;-83
2022/11/29 02:05:47;;;;;;;33.93;20.70;;;2.40;99.90;1.50;101068;;;;567416;251;24097;-81
2022/11/29 02:08:16;;;;;;;37.57;21.67;;;2.40;99.90;1.60;101074;;;;567160;252;24085;-78
2022/11/29 02:11:15;;;;;;;35.97;20.10;;;2.40;99.90;1.60;101070;;;;567094;252;24137;-79
2022/11/29 02:14:01;;;;;;;40.37;22.47;;;2.50;99.90;1.50;101065;;;;567291;249;24116;-79
2022/11/29 02:16:35;;;;;;;42.27;22.40;;;2.40;99.90;1.50;101072;;;;567397;252;24122;-78
2022/11/29 02:19:42;;;;;;;41.70;23.60;;;2.40;99.90;1.50;101062;;;;567989;250;24186;-77
2022/11/29 02:22:37;;;;;;;45.83;24.87;;;2.40;99.90;1.50;101064;;;;564583;253;24164;-79
2022/11/29 02:25:29;;;;;;;45.77;24.03;;;2.40;99.90;1.50;101067;;;;566948;253;24173;-78
2022/11/29 02:28:37;;;;;;;42.03;23.90;;;2.40;99.90;1.50;101071;;;;566572;253;24097;-78
2022/11/29 02:31:26;;;;;;;40.63;23.67;;;2.40;99.90;1.50;101069;;;;567183;252;24102;-78
2022/11/29 02:34:06;;;;;;;41.80;24.53;;;2.40;99.90;1.50;101078;;;;565975;251;24101;-78
2022/11/29 02:36:55;;;;;;;43.87;23.67;;;2.40;99.90;1.50;101079;;;;566999;252;24167;-78
2022/11/29 02:39:54;;;;;;;45.80;23.87;;;2.40;99.90;1.50;101074;;;;567045;251;24149;-82
2022/11/29 02:42:31;;;;;;;39.03;22.63;;;2.40;99.90;1.50;101079;;;;567040;252;24103;-79
2022/11/29 02:45:11;;;;;;;38.77;21.90;;;2.30;99.90;1.50;101071;;;;567509;251;27286;-78
2022/11/29 02:47:53;;;;;;;36.67;21.50;;;2.40;99.90;1.40;101081;;;;567121;251;24151;-81
2022/11/29 02:50:46;;;;;;;37.37;22.23;;;2.30;99.90;1.40;101078;;;;566447;253;24134;-84
2022/11/29 02:53:41;;;;;;;36.10;21.60;;;2.30;99.90;1.40;101086;;;;567545;251;24127;-83
2022/11/29 02:56:39;;;;;;;37.77;22.27;;;2.30;99.90;1.40;101082;;;;568549;251;24143;-84
2022/11/29 02:59:22;;;;;;;36.47;20.00;;;2.30;99.90;1.40;101082;;;;568866;252;24100;-80
2022/11/29 03:02:08;;;;;;;34.43;20.13;;;2.30;99.90;1.40;101089;;;;568111;251;24116;-77
2022/11/29 03:04:53;;;;;;;33.47;18.97;;;2.30;99.90;1.40;101087;;;;567761;252;24117;-78
2022/11/29 03:07:38;;;;;;;27.90;17.80;;;2.30;99.90;1.40;101082;;;;555437;251;24144;-78
2022/11/29 03:10:37;;;;;;;31.53;18.00;;;2.30;99.90;1.40;101084;;;;567669;251;24110;-77
2022/11/29 03:13:05;;;;;;;28.47;17.73;;;2.20;99.90;1.40;101087;;;;567471;249;24194;-76
2022/11/29 03:15:38;;;;;;;24.10;15.23;;;2.30;99.90;1.40;101084;;;;567518;253;24133;-76
2022/11/29 03:18:18;;;;;;;22.83;14.60;;;2.30;99.90;1.40;101100;;;;567599;251;24097;-78
2022/11/29 03:20:58;;;;;;;25.77;15.57;;;2.20;99.90;1.40;101102;;;;567734;251;24113;-78
2022/11/29 03:23:28;;;;;;;26.83;14.40;;;2.30;99.90;1.30;101088;;;;567030;252;24123;-77
2022/11/29 03:26:21;;;;;;;22.40;14.03;;;2.30;99.90;1.40;101109;;;;567485;252;24262;-79
2022/11/29 03:28:54;;;;;;;20.70;12.73;;;2.20;99.90;1.40;101095;;;;567425;252;24120;-77
2022/11/29 03:31:29;;;;;;;22.27;13.90;;;2.30;99.90;1.40;101091;;;;566789;253;24165;-78
2022/11/29 03:34:05;;;;;;;20.97;13.53;;;2.20;99.90;1.30;101091;;;;566860;253;24105;-77
2022/11/29 03:37:03;;;;;;;26.07;14.23;;;2.30;99.90;1.30;101093;;;;567131;252;24097;-77
2022/11/29 03:39:44;;;;;;;22.67;14.60;;;2.20;99.90;1.30;101110;;;;567128;252;24153;-76
2022/11/29 03:42:30;;;;;;;22.57;14.33;;;2.20;99.90;1.30;101099;;;;567088;252;24114;-76
2022/11/29 03:45:04;;;;;;;23.13;14.77;;;2.20;99.90;1.30;101103;;;;567455;252;24183;-77
2022/11/29 03:47:35;;;;;;;24.90;14.23;;;2.10;99.90;1.20;101104;;;;567055;252;24169;-77
2022/11/29 03:50:06;;;;;;;22.27;12.90;;;2.10;99.90;1.20;101099;;;;560226;253;24153;-78
2022/11/29 03:52:49;;;;;;;20.47;13.67;;;2.10;99.90;1.20;101107;;;;567116;253;24113;-78
2022/11/29 03:55:29;;;;;;;21.20;14.13;;;2.10;99.90;1.20;101106;;;;567317;251;24111;-78
2022/11/29 03:58:17;;;;;;;23.53;14.17;;;2.10;99.90;1.20;101106;;;;567098;252;24174;-79
2022/11/29 04:00:49;;;;;;;23.33;13.87;;;2.10;99.90;1.20;101118;;;;566661;252;25174;-79
2022/11/29 04:03:53;;;;;;;24.73;13.90;;;2.10;99.90;1.10;101105;;;;567059;252;24115;-78
2022/11/29 04:06:45;;;;;;;23.10;15.13;;;2.10;99.90;1.10;101119;;;;568355;251;24123;-79
2022/11/29 04:09:37;;;;;;;21.80;13.03;;;2.10;99.90;1.20;101125;;;;568039;251;24140;-78
2022/11/29 04:12:26;;;;;;;23.73;13.57;;;2.10;99.90;1.10;101117;;;;567872;251;24149;-79
2022/11/29 04:15:15;;;;;;;20.77;15.00;;;2.10;99.90;1.10;101122;;;;567694;251;24130;-77
2022/11/29 04:17:54;;;;;;;21.03;15.30;;;2.00;99.90;1.10;101124;;;;567507;252;24128;-78
2022/11/29 04:20:30;;;;;;;23.15;16.62;;;2.00;99.90;1.10;101122;;;;562856;251;46333;-80
2022/11/29 04:23:06;;;;;;;14.07;10.23;;;2.00;99.90;1.10;101130;;;;566806;253;24126;-81
2022/11/29 04:25:40;;;;;;;21.70;14.67;;;2.00;99.90;1.00;101124;;;;567393;251;24118;-81
2022/11/29 04:28:45;;;;;;;21.37;14.53;;;2.00;99.90;1.00;101137;;;;567466;251;24113;-82
2022/11/29 04:31:39;;;;;;;20.43;15.10;;;2.00;99.90;1.00;101129;;;;567673;251;24113;-80
2022/11/29 04:34:41;;;;;;;23.87;15.30;;;1.90;99.90;1.00;101141;;;;567657;251;24097;-80
2022/11/29 04:37:52;;;;;;;20.93;15.33;;;1.90;99.90;1.00;101139;;;;567485;251;24090;-81
2022/11/29 04:40:44;;;;;;;21.97;14.27;;;1.90;99.90;1.00;101132;;;;567665;251;24152;-80
2022/11/29 04:43:21;;;;;;;21.30;14.37;;;1.90;99.90;1.00;101139;;;;567425;252;24115;-79
2022/11/29 04:46:16;;;;;;;21.27;13.13;;;1.90;99.90;1.00;101147;;;;564904;252;24169;-81
2022/11/29 04:49:05;;;;;;;20.17;14.27;;;1.90;99.90;0.90;101150;;;;567112;252;24112;-79
2022/11/29 04:51:47;;;;;;;18.67;13.53;;;1.90;99.90;0.90;101154;;;;572283;251;24161;-78
2022/11/29 04:54:39;;;;;;;19.77;13.47;;;1.80;99.90;0.90;101155;;;;564514;252;24100;-80
2022/11/29 04:57:27;;;;;;;19.90;14.57;;;1.80;99.90;0.90;101159;;;;566120;253;24108;-79
2022/11/29 05:00:10;;;;;;;21.67;14.53;;;1.80;99.90;0.90;101166;;;;567056;252;24119;-83
2022/11/29 05:02:47;;;;;;;24.47;15.77;;;1.80;99.90;0.90;101160;;;;546552;258;24151;-82
2022/11/29 05:05:57;;;;;;;20.47;14.23;;;1.80;99.90;0.90;101160;;;;567009;251;24108;-82
2022/11/29 05:08:36;;;;;;;21.20;13.93;;;1.80;99.90;0.90;101162;;;;567072;251;24101;-78
2022/11/29 05:11:28;;;;;;;18.60;14.60;;;1.80;99.90;0.90;101164;;;;567076;252;24119;-80
2022/11/29 05:14:14;;;;;;;20.90;14.43;;;1.80;99.90;0.90;101155;;;;566996;249;24146;-81
2022/11/29 05:17:25;;;;;;;19.57;14.63;;;1.80;99.90;0.90;101165;;;;567397;251;24115;-78
2022/11/29 05:20:28;;;;;;;20.77;13.87;;;1.80;99.90;0.90;101164;;;;567863;251;24103;-79
2022/11/29 05:23:21;;;;;;;22.77;15.50;;;1.70;99.90;0.80;101156;;;;567915;251;25193;-78
2022/11/29 05:26:00;;;;;;;20.77;15.37;;;1.70;99.90;0.80;101169;;;;567850;251;24218;-82
2022/11/29 05:29:02;;;;;;;22.13;15.47;;;1.80;99.90;0.80;101177;;;;567112;253;24138;-80
2022/11/29 05:31:50;;;;;;;22.67;15.93;;;1.70;99.90;0.80;101178;;;;568000;248;24115;-81
2022/11/29 05:34:39;;;;;;;20.47;15.60;;;1.70;99.90;0.80;101172;;;;567817;251;24123;-79
2022/11/29 05:37:21;;;;;;;21.00;14.97;;;1.70;99.90;0.80;101189;;;;567380;251;24094;-78
2022/11/29 05:39:56;;;;;;;19.60;14.50;;;1.70;99.90;0.80;101171;;;;567019;252;24112;-79
2022/11/29 05:42:45;;;;;;;20.63;15.17;;;1.70;99.90;0.80;101180;;;;567303;252;24147;-81
2022/11/29 05:45:18;;;;;;;24.80;15.40;;;1.70;99.90;0.80;101187;;;;567794;251;24104;-82
2022/11/29 05:48:04;;;;;;;24.03;16.40;;;1.70;99.90;0.80;101183;;;;567171;252;25164;-80
2022/11/29 05:51:02;;;;;;;30.53;16.90;;;1.70;99.90;0.80;101193;;;;567131;252;24136;-80
2022/11/29 05:53:34;;;;;;;26.30;16.97;;;1.70;99.90;0.80;101190;;;;567147;251;24112;-79
2022/11/29 05:56:23;;;;;;;23.57;16.00;;;1.70;99.90;0.80;101205;;;;567115;252;24086;-83
2022/11/29 05:59:03;;;;;;;23.80;15.50;;;1.70;99.90;0.70;101192;;;;567311;251;24105;-79
2022/11/29 06:02:04;;;;;;;23.10;15.63;;;1.70;99.90;0.70;101190;;;;566403;253;24126;-81
2022/11/29 06:04:50;;;;;;;26.47;17.03;;;1.60;99.90;0.60;101190;;;;567032;252;24179;-81
2022/11/29 06:07:18;;;;;;;26.70;17.57;;;1.60;99.90;0.60;101204;;;;567018;252;24115;-83
2022/11/29 06:09:47;;;;;;;24.83;17.13;;;1.60;99.90;0.60;101197;;;;566401;253;24120;-83
2022/11/29 06:12:19;;;;;;;27.37;17.60;;;1.60;99.90;0.60;101197;;;;566532;253;24112;-81
2022/11/29 06:15:10;;;;;;;26.03;16.93;;;1.50;99.90;0.60;101200;;;;567105;248;24145;-83
2022/11/29 06:18:07;;;;;;;28.13;18.97;;;1.50;99.90;0.60;101204;;;;567046;252;24101;-83
2022/11/29 06:20:53;;;;;;;25.50;17.97;;;1.60;99.90;0.60;101203;;;;567327;251;24141;-82
2022/11/29 06:23:58;;;;;;;25.43;17.17;;;1.60;99.90;0.60;101210;;;;568432;250;24130;-81
2022/11/29 06:26:44;;;;;;;23.60;17.43;;;1.50;99.90;0.60;101211;;;;567022;252;24101;-82
2022/11/29 06:29:18;;;;;;;25.83;18.20;;;1.50;99.90;0.60;101215;;;;567619;251;24162;-79
2022/11/29 06:31:51;;;;;;;24.03;16.07;;;1.50;99.90;0.60;101222;;;;567971;252;24092;-80
2022/11/29 06:34:21;;;;;;;24.30;16.67;;;1.50;99.90;0.60;101221;;;;567746;251;24097;-78
2022/11/29 06:37:04;;;;;;;22.47;15.47;;;1.50;99.90;0.60;101210;;;;567450;252;25132;-78
2022/11/29 06:39:35;;;;;;;25.50;18.03;;;1.50;99.90;0.50;101213;;;;567516;251;24215;-79
2022/11/29 06:41:59;;;;;;;25.97;16.47;;;1.40;99.90;0.40;101213;;;;567427;252;24088;-78
2022/11/29 06:44:27;;;;;;;22.57;16.87;;;1.40;99.90;0.50;101217;;;;567954;251;24117;-79
2022/11/29 06:47:01;;;;;;;22.20;15.87;;;1.40;99.90;0.50;101218;;;;567560;251;24153;-82
2022/11/29 06:49:47;;;;;;;24.53;17.40;;;1.40;99.90;0.50;101228;;;;567213;252;26330;-82
2022/11/29 06:52:44;;;;;;;22.07;15.40;;;1.40;99.90;0.50;101223;;;;566932;253;24121;-79
2022/11/29 06:55:24;;;;;;;26.07;17.53;;;1.40;99.90;0.50;101226;;;;562629;255;25170;-78
2022/11/29 06:58:12;;;;;;;25.47;18.07;;;1.40;99.90;0.50;101227;;;;552303;254;25206;-81
2022/11/29 07:00:54;;;;;;;23.40;17.43;;;1.40;99.90;0.50;101226;;;;539639;265;24162;-79
2022/11/29 07:03:53;;;;;;;28.30;17.33;;;1.40;99.90;0.50;101230;;;;551928;258;24121;-82
2022/11/29 07:06:20;;;;;;;28.30;18.97;;;1.40;99.90;0.50;101225;;;;555316;256;24176;-83
2022/11/29 07:08:55;;;;;;;30.20;18.60;;;1.40;99.90;0.50;101222;;;;567041;251;24161;-80
2022/11/29 07:11:19;;;;;;;22.07;15.40;;;1.40;99.90;0.50;101235;;;;566548;253;24174;-81
2022/11/29 07:13:50;;;;;;;25.40;16.77;;;1.40;99.90;0.50;101230;;;;567056;249;24084;-79
2022/11/29 07:16:36;;;;;;;29.43;17.60;;;1.40;99.90;0.50;101226;;;;567005;253;24182;-79
2022/11/29 07:19:40;;;;;;;24.23;17.77;;;1.40;99.90;0.50;101240;;;;566959;251;24088;-79
2022/11/29 07:22:31;;;;;;;29.07;19.13;;;1.40;99.90;0.50;101241;;;;566600;253;24150;-79
2022/11/29 07:25:26;;;;;;;27.07;18.13;;;1.40;99.90;0.40;101243;;;;565940;253;24160;-78
2022/11/29 07:28:13;;;;;;;26.37;19.10;;;1.40;99.90;0.50;101248;;;;566910;252;24116;-81
2022/11/29 07:30:58;;;;;;;28.80;17.47;;;1.40;99.90;0.50;101235;;;;567318;251;24082;-81
2022/11/29 07:33:29;;;;;;;29.37;20.67;;;1.40;99.90;0.50;101240;;;;567081;252;24139;-78
2022/11/29 07:36:15;;;;;;;28.63;20.27;;;1.40;99.90;0.50;101239;;;;566076;252;25132;-80
2022/11/29 07:39:10;;;;;;;29.83;21.13;;;1.40;99.90;0.50;101251;;;;567053;252;24100;-81
2022/11/29 07:42:08;;;;;;;28.13;21.40;;;1.40;99.90;0.50;101246;;;;568476;251;24151;-79
2022/11/29 07:44:39;;;;;;;27.37;19.20;;;1.40;99.90;0.50;101247;;;;567977;251;24169;-80
2022/11/29 07:47:07;;;;;;;25.33;17.70;;;1.40;99.90;0.50;101258;;;;567977;252;24101;-80
2022/11/29 07:49:41;;;;;;;28.87;20.53;;;1.40;99.90;0.50;101239;;;;567706;252;24102;-79
2022/11/29 07:52:05;;;;;;;25.37;18.30;;;1.40;99.90;0.50;101246;;;;567184;252;24085;-80
2022/11/29 07:54:33;;;;;;;26.97;18.33;;;1.40;99.90;0.50;101263;;;;567545;251;24097;-83
2022/11/29 07:57:01;;;;;;;25.23;18.77;;;1.40;99.90;0.50;101250;;;;567570;251;24103;-79
2022/11/29 07:59:29;;;;;;;26.13;19.13;;;1.40;99.90;0.50;101241;;;;567509;251;24125;-82
2022/11/29 08:01:58;;;;;;;28.30;20.30;;;1.50;99.90;0.50;101240;;;;567584;251;24090;-82
2022/11/29 08:04:26;;;;;;;29.00;20.97;;;1.50;99.90;0.60;101250;;;;567663;251;24137;-82
2022/11/29 08:06:53;;;;;;;33.37;20.53;;;1.50;99.90;0.60;101241;;;;567698;251;24127;-80
2022/11/29 08:09:21;;;;;;;27.33;19.47;;;1.50;99.90;0.60;101233;;;;567506;251;25204;-78
2022/11/29 08:11:49;;;;;;;28.73;22.87;;;1.50;99.90;0.60;101250;;;;562395;251;46222;-77
2022/11/29 08:14:18;;;;;;;29.97;21.27;;;1.50;99.90;0.60;101249;;;;567284;249;24105;-81
2022/11/29 08:16:46;;;;;;;28.53;21.03;;;1.50;99.90;0.60;101244;;;;567260;251;24128;-78
2022/11/29 08:19:14;;;;;;;28.87;20.27;;;1.70;99.90;0.60;101240;;;;567081;252;24107;-82
2022/11/29 08:21:46;;;;;;;32.43;21.27;;;1.60;99.90;0.60;101247;;;;567068;252;24098;-79
2022/11/29 08:24:10;;;;;;;30.30;21.80;;;1.60;99.90;0.60;101237;;;;566736;252;24093;-77
2022/11/29 08:26:38;;;;;;;31.67;22.43;;;1.60;99.90;0.70;101241;;;;567053;252;24105;-80
2022/11/29 08:29:06;;;;;;;33.63;21.97;;;1.60;99.90;0.60;101248;;;;567044;252;24092;-78
2022/11/29 08:31:37;;;;;;;32.17;21.47;;;1.60;99.90;0.70;101251;;;;567057;252;24202;-77
2022/11/29 08:34:02;;;;;;;28.23;19.97;;;1.60;99.90;0.70;101244;;;;566681;253;24102;-80
2022/11/29 08:36:33;;;;;;;32.20;22.13;;;1.60;99.90;0.70;101241;;;;567002;252;24108;-78
2022/11/29 08:39:01;;;;;;;32.43;22.70;;;1.60;99.90;0.70;101236;;;;566723;252;24135;-78
2022/11/29 08:41:26;;;;;;;32.90;21.93;;;1.60;99.90;0.70;101239;;;;566892;253;24186;-78
2022/11/29 08:43:58;;;;;;;32.93;21.43;;;1.60;99.90;0.70;101253;;;;567073;252;24096;-81
2022/11/29 08:47:34;;;;;;;33.93;20.73;;;1.60;99.90;0.60;101242;;;;566785;253;24112;-78
2022/11/29 08:48:50;;;;;;;28.70;19.50;;;1.60;99.90;0.70;101247;;;;566399;253;24128;-79
2022/11/29 08:51:18;;;;;;;32.20;20.67;;;1.60;99.90;0.60;101242;;;;567775;251;24151;-78
2022/11/29 08:53:50;;;;;;;32.97;22.13;;;1.60;99.90;0.70;101244;;;;568326;251;25137;-83
2022/11/29 08:56:17;;;;;;;28.53;20.13;;;1.60;99.90;0.70;101233;;;;567690;252;24104;-78
2022/11/29 08:58:43;;;;;;;29.33;20.30;;;1.60;99.90;0.70;101234;;;;567661;252;24167;-80
2022/11/29 09:01:14;;;;;;;29.13;21.90;;;1.60;99.90;0.70;101240;;;;567600;251;24168;-81
2022/11/29 09:04:05;;;;;;;33.10;22.03;;;1.70;99.90;0.70;101230;;;;567497;251;24107;-83
2022/11/29 09:06:28;;;;;;;34.57;23.20;;;1.70;99.90;0.70;101231;;;;567195;252;24122;-78
2022/11/29 09:08:56;;;;;;;36.57;22.53;;;1.60;99.90;0.70;101231;;;;567286;252;25246;-79
2022/11/29 09:11:24;;;;;;;34.90;21.00;;;1.60;99.90;0.70;101231;;;;567164;252;24137;-79
2022/11/29 09:13:53;;;;;;;35.57;22.77;;;1.70;99.90;0.80;101240;;;;567209;249;24085;-79
2022/11/29 09:16:21;;;;;;;33.23;23.30;;;1.70;99.90;0.80;101228;;;;567228;251;24105;-79
2022/11/29 09:18:53;;;;;;;36.07;22.20;;;1.70;99.90;0.80;101239;;;;554818;253;24139;-83
2022/11/29 09:21:17;;;;;;;37.93;23.83;;;1.70;99.90;0.90;101243;;;;554390;253;24260;-82
2022/11/29 09:23:49;;;;;;;33.27;22.50;;;1.80;99.90;0.90;101245;;;;563694;253;24085;-81
2022/11/29 09:26:19;;;;;;;31.17;22.70;;;1.80;99.90;0.90;101235;;;;560391;253;24085;-83
2022/11/29 09:28:48;;;;;;;33.80;23.30;;;1.80;99.90;0.90;101243;;;;555417;253;24085;-82
2022/11/29 09:31:18;;;;;;;33.97;22.60;;;1.80;99.90;1.00;101238;;;;560452;253;24144;-82
2022/11/29 09:33:44;;;;;;;33.83;22.33;;;1.90;99.90;1.00;101239;;;;560522;253;24120;-80
2022/11/29 09:36:11;;;;;;;32.10;22.13;;;1.90;99.90;1.00;101238;;;;555463;253;24139;-79
2022/11/29 09:38:39;;;;;;;31.43;22.50;;;1.90;99.90;1.00;101232;;;;560467;253;24137;-81
2022/11/29 09:41:45;;;;;;;33.20;21.57;;;2.00;99.90;1.10;101234;;;;568696;252;24105;-81
2022/11/29 09:44:37;;;;;;;37.17;24.33;;;1.90;99.90;1.00;101228;;;;543423;258;24138;-79
2022/11/29 09:47:23;;;;;;;33.50;21.90;;;2.00;99.90;1.00;101240;;;;568582;252;24094;-81
2022/11/29 09:50:10;;;;;;;32.80;22.53;;;2.00;99.90;1.00;101233;;;;555710;253;24136;-81
2022/11/29 09:53:11;;;;;;;35.43;21.70;;;2.00;99.90;1.00;101232;;;;560839;250;24089;-82
2022/11/29 09:56:04;;;;;;;39.00;23.63;;;1.90;99.90;1.00;101239;;;;555745;253;24148;-78
2022/11/29 09:58:32;;;;;;;34.10;22.47;;;1.90;99.90;1.00;101234;;;;562000;253;24093;-78
2022/11/29 10:01:01;;;;;;;39.17;25.03;;;1.90;99.90;1.00;101240;;;;568660;252;24161;-79
2022/11/29 10:03:29;;;;;;;39.03;23.27;;;1.90;99.90;1.00;101237;;;;569849;250;24129;-81
2022/11/29 10:06:12;;;;;;;31.20;22.97;;;1.90;99.90;1.00;101237;;;;561724;253;24115;-79
2022/11/29 10:09:01;;;;;;;31.53;22.40;;;1.90;99.90;1.10;101242;;;;571663;244;24128;-80
2022/11/29 10:11:44;;;;;;;34.90;24.47;;;2.00;99.90;1.10;101244;;;;569412;252;24102;-78
2022/11/29 10:14:21;;;;;;;36.07;25.07;;;2.00;99.90;1.10;101236;;;;557740;253;24092;-78
2022/11/29 10:17:07;;;;;;;34.10;24.87;;;2.10;99.90;1.20;101241;;;;562615;255;24186;-79
2022/11/29 10:19:37;;;;;;;37.23;22.60;;;2.10;99.90;1.20;101241;;;;543176;255;24162;-79
2022/11/29 10:22:17;;;;;;;38.17;24.53;;;2.10;99.90;1.20;101243;;;;560643;253;24239;-78
2022/11/29 10:24:48;;;;;;;37.97;25.73;;;2.10;99.90;1.30;101245;;;;560293;253;24108;-80
2022/11/29 10:27:19;;;;;;;38.73;25.20;;;2.20;99.90;1.30;101240;;;;555181;253;24090;-81
2022/11/29 10:29:50;;;;;;;37.47;24.67;;;2.20;99.90;1.30;101244;;;;560756;253;24152;-78
2022/11/29 10:32:20;;;;;;;40.37;25.87;;;2.20;99.90;1.30;101236;;;;568938;251;24090;-82
2022/11/29 10:34:44;;;;;;;35.43;23.33;;;2.20;99.90;1.30;101237;;;;569015;252;24099;-83
2022/11/29 10:37:17;;;;;;;35.97;23.70;;;2.20;99.90;1.30;101242;;;;569214;246;24131;-82
2022/11/29 10:39:56;;;;;;;37.90;24.10;;;2.20;99.90;1.30;101244;;;;560776;253;24134;-81
2022/11/29 10:45:29;;;;;;;40.63;25.90;;;2.20;99.90;1.30;101248;;;;560546;253;24112;-78
2022/11/29 10:48:04;;;;;;;36.10;22.17;;;2.20;99.90;1.30;101254;;;;568859;251;24118;-78
2022/11/29 10:50:32;;;;;;;41.43;27.63;;;2.20;99.90;1.30;101250;;;;560762;253;24164;-79
2022/11/29 10:53:05;;;;;;;44.27;27.83;;;2.10;99.90;1.20;101256;;;;560874;253;24252;-79
2022/11/29 10:55:45;;;;;;;43.47;25.33;;;2.10;99.90;1.30;101248;;;;560747;253;24097;-80
2022/11/29 10:58:19;;;;;;;43.03;26.87;;;2.20;99.90;1.30;101246;;;;560722;253;24114;-80
2022/11/29 11:01:01;;;;;;;40.60;27.10;;;2.20;99.90;1.30;101251;;;;558408;253;24160;-79
2022/11/29 11:03:35;;;;;;;35.63;25.43;;;2.20;99.90;1.30;101249;;;;569286;251;25152;-79
2022/11/29 11:06:08;;;;;;;41.67;26.57;;;2.20;99.90;1.30;101254;;;;569214;251;24103;-78
2022/11/29 11:08:40;;;;;;;45.07;28.63;;;2.20;99.90;1.30;101258;;;;558526;253;24150;-78
2022/11/29 11:11:04;;;;;;;44.80;27.37;;;2.20;99.90;1.30;101261;;;;568818;252;24119;-77
2022/11/29 11:13:32;;;;;;;42.90;26.27;;;2.20;99.90;1.30;101251;;;;555458;253;24136;-78
2022/11/29 11:16:15;;;;;;;41.70;26.37;;;2.20;99.90;1.40;101254;;;;559503;252;24150;-77
2022/11/29 11:18:43;;;;;;;39.57;25.27;;;2.30;99.90;1.40;101253;;;;561510;253;24090;-78
2022/11/29 11:21:14;;;;;;;41.13;27.23;;;2.30;99.90;1.40;101255;;;;561042;253;24182;-76
2022/11/29 11:26:08;;;;;;;44.00;26.87;;;2.30;99.90;1.40;101248;;;;583537;246;24116;-74
2022/11/29 11:28:51;;;;;;;38.93;24.30;;;2.30;99.90;1.40;101254;;;;574971;246;24092;-75
2022/11/29 11:31:31;;;;;;;34.47;24.00;;;2.30;99.90;1.40;101254;;;;583804;242;24078;-75
2022/11/29 11:34:36;;;;;;;40.47;25.53;;;2.30;99.90;1.40;101255;;;;574499;246;24079;-74
2022/11/29 11:37:22;;;;;;;36.10;23.33;;;2.30;99.90;1.40;101255;;;;583513;243;24115;-76
2022/11/29 11:39:50;;;;;;;36.77;22.83;;;2.30;99.90;1.40;101254;;;;574408;246;24097;-74
2022/11/29 11:42:36;;;;;;;36.43;22.47;;;2.30;99.90;1.40;101253;;;;574521;246;24082;-74
2022/11/29 11:45:10;;;;;;;40.63;25.77;;;2.30;99.90;1.30;101250;;;;574820;246;24122;-74
2022/11/29 11:47:41;;;;;;;37.47;25.30;;;2.30;99.90;1.40;101252;;;;574756;246;24075;-75
2022/11/29 11:50:12;;;;;;;37.43;25.40;;;2.30;99.90;1.40;101246;;;;573589;246;24150;-74
2022/11/29 11:52:55;;;;;;;36.37;24.00;;;2.30;99.90;1.40;101255;;;;574220;246;24087;-75
2022/11/29 11:55:29;;;;;;;41.33;26.00;;;2.30;99.90;1.40;101246;;;;582155;245;24121;-74
2022/11/29 11:58:06;;;;;;;39.50;25.63;;;2.30;99.90;1.40;101244;;;;583222;243;24082;-76
2022/11/29 12:00:56;;;;;;;36.87;24.47;;;2.30;99.90;1.40;101256;;;;582881;246;24116;-75
2022/11/29 12:03:24;;;;;;;34.33;22.10;;;2.30;99.90;1.40;101258;;;;574095;246;24097;-75
2022/11/29 12:05:51;;;;;;;38.53;24.00;;;2.30;99.90;1.40;101258;;;;573996;246;24084;-76